Time;durP1;ratioP1;P1;durP2;ratioP2;P2;SDS_P1;SDS_P2;PMS_P1;PMS_P2;Temp;Humidity;BMP_temperature;BMP_pressure;BME280_temperature;BME280_humidity;BME280_pressure;Samples;Min_cycle;Max_cycle;Signal;HPM_P1;HPM_P2
2024/03/30 00:00:52;;;;;;;14.70;5.00;;;7.30;99.90;;;;;;5038414;28;20129;-40
2024/03/30 00:03:19;;;;;;;17.92;4.68;;;7.30;99.90;;;;;;5044411;28;20494;-41
2024/03/30 00:05:45;;;;;;;15.88;5.20;;;7.40;99.90;;;;;;5039383;28;20033;-38
2024/03/30 00:08:10;;;;;;;13.02;5.70;;;7.40;99.90;;;;;;5041157;28;20036;-38
2024/03/30 00:10:37;;;;;;;16.30;4.75;;;7.40;99.90;;;;;;5040567;28;20029;-39
2024/03/30 00:13:04;;;;;;;16.42;4.80;;;7.40;99.90;;;;;;5040566;28;20087;-38
2024/03/30 00:15:31;;;;;;;17.83;5.80;;;7.40;99.90;;;;;;5041830;28;20470;-41
2024/03/30 00:17:58;;;;;;;12.23;4.57;;;7.40;99.90;;;;;;5041658;28;20064;-39
2024/03/30 00:20:24;;;;;;;13.82;4.53;;;7.40;99.90;;;;;;5038658;28;20524;-37
2024/03/30 00:22:51;;;;;;;21.13;4.97;;;7.50;99.90;;;;;;5044243;28;20029;-40
2024/03/30 00:25:18;;;;;;;14.88;4.70;;;7.50;99.90;;;;;;5044462;28;20490;-39
2024/03/30 00:27:44;;;;;;;7.38;3.38;;;7.20;99.90;;;;;;5043672;28;20040;-41
2024/03/30 00:30:10;;;;;;;16.45;4.32;;;6.80;99.90;;;;;;5042167;28;20363;-40
2024/03/30 00:32:36;;;;;;;19.83;5.68;;;6.50;99.90;;;;;;5023679;28;20036;-42
2024/03/30 00:35:02;;;;;;;24.35;6.53;;;6.50;99.90;;;;;;5024188;28;20481;-41
2024/03/30 00:37:28;;;;;;;25.25;6.53;;;6.60;99.90;;;;;;5025285;28;20033;-40
2024/03/30 00:39:54;;;;;;;16.25;5.10;;;6.70;99.90;;;;;;5024677;28;20094;-32
2024/03/30 00:42:20;;;;;;;18.25;5.32;;;6.80;99.90;;;;;;5016620;28;20030;-37
2024/03/30 00:44:45;;;;;;;21.90;5.28;;;6.90;99.90;;;;;;5023429;28;21900;-33
2024/03/30 00:47:11;;;;;;;16.13;5.25;;;7.00;99.90;;;;;;5021156;28;20068;-32
2024/03/30 00:49:37;;;;;;;23.65;5.20;;;7.00;99.90;;;;;;5022553;28;20064;-35
2024/03/30 00:52:02;;;;;;;25.85;5.32;;;7.10;99.90;;;;;;5042571;28;20469;-34
2024/03/30 00:54:28;;;;;;;23.80;5.35;;;7.10;99.90;;;;;;5030206;28;20104;-33
2024/03/30 00:56:54;;;;;;;21.63;5.47;;;7.20;99.90;;;;;;5024045;28;20057;-35
2024/03/30 00:59:21;;;;;;;22.92;5.90;;;7.10;99.90;;;;;;5021742;28;20474;-32
2024/03/30 01:01:50;;;;;;;20.63;5.78;;;7.10;99.90;;;;;;5021254;28;20453;-34
2024/03/30 01:04:16;;;;;;;23.90;5.95;;;7.20;99.90;;;;;;5023892;28;20081;-36
2024/03/30 01:06:43;;;;;;;19.30;5.75;;;7.20;99.90;;;;;;5020842;28;20499;-37
2024/03/30 01:09:09;;;;;;;22.90;5.72;;;7.20;99.90;;;;;;5018437;28;20243;-32
2024/03/30 01:11:36;;;;;;;16.45;5.00;;;7.20;99.90;;;;;;5018970;28;20036;-35
2024/03/30 01:14:04;;;;;;;23.70;5.28;;;7.20;99.90;;;;;;5022787;28;20153;-39
2024/03/30 01:16:30;;;;;;;26.27;5.88;;;7.20;99.90;;;;;;5023994;28;20113;-37
2024/03/30 01:18:56;;;;;;;21.45;5.80;;;7.10;99.90;;;;;;5024059;28;20121;-33
2024/03/30 01:21:22;;;;;;;19.88;6.25;;;7.20;99.90;;;;;;5020609;28;20037;-38
2024/03/30 01:23:48;;;;;;;23.42;6.03;;;7.20;99.90;;;;;;5018603;28;20033;-35
2024/03/30 01:26:17;;;;;;;20.73;5.75;;;7.10;99.90;;;;;;5023585;28;20364;-33
2024/03/30 01:28:44;;;;;;;31.85;7.20;;;7.10;99.90;;;;;;5023632;28;20025;-32
2024/03/30 01:31:12;;;;;;;25.65;5.22;;;7.20;99.90;;;;;;5020088;28;20060;-34
2024/03/30 01:33:39;;;;;;;20.80;6.38;;;7.10;99.90;;;;;;5021812;28;20033;-32
2024/03/30 01:36:04;;;;;;;25.90;6.13;;;7.10;99.90;;;;;;5025664;28;20025;-33
2024/03/30 01:38:31;;;;;;;24.90;5.70;;;7.20;99.90;;;;;;5024451;28;20029;-37
2024/03/30 01:40:57;;;;;;;19.58;5.25;;;7.20;99.90;;;;;;5022365;28;20050;-38
2024/03/30 01:43:22;;;;;;;21.08;5.60;;;7.20;99.90;;;;;;5022157;28;20108;-33
2024/03/30 01:45:48;;;;;;;27.70;6.07;;;7.20;99.90;;;;;;5022265;28;20130;-33
2024/03/30 01:48:15;;;;;;;37.80;7.15;;;7.20;99.90;;;;;;5021320;28;20399;-41
2024/03/30 01:50:44;;;;;;;26.98;7.20;;;7.10;99.90;;;;;;5021664;28;20491;-42
2024/03/30 01:53:13;;;;;;;28.50;7.35;;;6.80;99.90;;;;;;5021991;28;20045;-39
2024/03/30 01:55:40;;;;;;;27.10;6.32;;;6.80;99.90;;;;;;5021960;28;20518;-40
2024/03/30 01:58:08;;;;;;;27.15;6.93;;;6.80;99.90;;;;;;5020338;28;20804;-39
2024/03/30 02:00:33;;;;;;;36.55;7.30;;;6.80;99.90;;;;;;5022874;28;20033;-41
2024/03/30 02:03:01;;;;;;;28.20;6.43;;;6.90;99.90;;;;;;5047026;28;20113;-40
2024/03/30 02:05:28;;;;;;;21.65;5.63;;;6.90;99.90;;;;;;5048530;28;20037;-41
2024/03/30 02:07:57;;;;;;;24.30;6.57;;;6.90;99.90;;;;;;5047140;28;20701;-40
2024/03/30 02:10:23;;;;;;;25.75;6.30;;;6.90;99.90;;;;;;5046008;28;20040;-38
2024/03/30 02:12:48;;;;;;;24.30;5.97;;;6.90;99.90;;;;;;5042320;28;20036;-42
2024/03/30 02:15:14;;;;;;;37.05;6.72;;;6.80;99.90;;;;;;5045432;28;20482;-39
2024/03/30 02:17:39;;;;;;;26.88;6.93;;;6.80;99.90;;;;;;5041679;28;20029;-41
2024/03/30 02:20:06;;;;;;;34.83;7.38;;;6.80;99.90;;;;;;5044514;28;20025;-41
2024/03/30 02:22:32;;;;;;;26.15;6.40;;;6.80;99.90;;;;;;5050102;28;20432;-41
2024/03/30 02:24:57;;;;;;;25.95;6.45;;;6.70;99.90;;;;;;5043676;28;20542;-41
2024/03/30 02:27:23;;;;;;;27.00;6.07;;;6.70;99.90;;;;;;5041008;28;20148;-38
2024/03/30 02:29:56;;;;;;;26.48;6.68;;;6.70;99.90;;;;;;5047735;28;20033;-42
2024/03/30 02:32:21;;;;;;;62.08;17.77;;;6.70;99.90;;;;;;5029266;28;20041;-41
2024/03/30 02:34:47;;;;;;;66.20;16.52;;;6.70;99.90;;;;;;5025841;28;20051;-43
2024/03/30 02:37:13;;;;;;;47.28;10.93;;;6.60;99.90;;;;;;5021585;28;20061;-43
2024/03/30 02:39:38;;;;;;;45.30;10.70;;;6.60;99.90;;;;;;5025994;28;20087;-42
2024/03/30 02:42:04;;;;;;;39.58;9.20;;;6.70;99.90;;;;;;5022087;28;20030;-41
2024/03/30 02:44:30;;;;;;;29.35;7.38;;;6.70;99.90;;;;;;5021030;28;21136;-42
2024/03/30 02:46:55;;;;;;;31.25;7.60;;;6.60;99.90;;;;;;5023068;28;20045;-42
2024/03/30 02:49:22;;;;;;;29.85;7.95;;;6.60;99.90;;;;;;5023183;28;20486;-41
2024/03/30 02:51:47;;;;;;;22.55;6.32;;;6.70;99.90;;;;;;5020292;28;20127;-39
2024/03/30 02:54:14;;;;;;;35.80;6.78;;;6.70;99.90;;;;;;5023822;28;20197;-42
2024/03/30 02:56:40;;;;;;;28.02;7.10;;;6.70;99.90;;;;;;5026990;28;20029;-42
2024/03/30 02:59:05;;;;;;;25.48;5.75;;;6.70;99.90;;;;;;5027064;28;20025;-36
2024/03/30 03:01:31;;;;;;;38.50;6.57;;;6.60;99.90;;;;;;5022851;28;20061;-37
2024/03/30 03:03:56;;;;;;;35.90;6.95;;;6.60;99.90;;;;;;5024617;28;20484;-33
2024/03/30 03:06:22;;;;;;;27.90;7.50;;;6.60;99.90;;;;;;5026135;28;20053;-32
2024/03/30 03:08:48;;;;;;;27.58;6.45;;;6.50;99.90;;;;;;5028576;28;20068;-34
2024/03/30 03:11:13;;;;;;;26.73;5.93;;;6.50;99.90;;;;;;5023433;28;20064;-32
2024/03/30 03:13:39;;;;;;;31.15;6.30;;;6.50;99.90;;;;;;5020328;28;20657;-32
2024/03/30 03:16:05;;;;;;;24.73;6.25;;;6.50;99.90;;;;;;5022856;28;20030;-33
2024/03/30 03:18:31;;;;;;;42.85;7.20;;;6.60;99.90;;;;;;5024370;28;20056;-32
2024/03/30 03:20:56;;;;;;;38.47;7.18;;;6.50;99.90;;;;;;5024393;28;20551;-34
2024/03/30 03:23:24;;;;;;;28.50;6.10;;;6.50;99.90;;;;;;5024548;28;20033;-33
2024/03/30 03:25:51;;;;;;;38.15;5.68;;;6.50;99.90;;;;;;5029314;28;20493;-32
2024/03/30 03:28:16;;;;;;;26.45;6.47;;;6.60;99.90;;;;;;5022514;28;20037;-36
2024/03/30 03:30:42;;;;;;;33.25;6.72;;;6.50;99.90;;;;;;5027471;28;20060;-33
2024/03/30 03:33:08;;;;;;;26.90;6.10;;;6.30;99.90;;;;;;5044528;28;20487;-32
2024/03/30 03:35:34;;;;;;;40.85;6.20;;;6.10;99.90;;;;;;5059725;28;20128;-32
2024/03/30 03:37:59;;;;;;;30.15;5.10;;;6.10;99.90;;;;;;5042784;28;20040;-35
2024/03/30 03:40:25;;;;;;;33.20;6.93;;;6.00;99.90;;;;;;5039826;28;20021;-35
2024/03/30 03:42:51;;;;;;;26.88;5.55;;;6.10;99.90;;;;;;5038318;28;20975;-35
2024/03/30 03:45:16;;;;;;;37.22;6.88;;;6.10;99.90;;;;;;5040632;28;20107;-36
2024/03/30 03:47:42;;;;;;;19.88;5.05;;;6.20;99.90;;;;;;5040012;28;20049;-32
2024/03/30 03:50:08;;;;;;;28.35;5.28;;;6.20;99.90;;;;;;5041347;28;20028;-33
2024/03/30 03:52:33;;;;;;;28.83;6.47;;;6.10;99.90;;;;;;5041438;28;20041;-32
2024/03/30 03:54:59;;;;;;;28.13;5.53;;;6.10;99.90;;;;;;5045279;28;20037;-32
2024/03/30 03:57:24;;;;;;;28.05;5.50;;;5.90;99.90;;;;;;5044546;28;20029;-34
2024/03/30 03:59:50;;;;;;;24.52;5.88;;;6.00;99.90;;;;;;5044218;28;20390;-34
2024/03/30 04:02:16;;;;;;;34.10;6.60;;;5.90;99.90;;;;;;5042360;28;20150;-36
2024/03/30 04:04:42;;;;;;;27.00;5.65;;;5.90;99.90;;;;;;5040232;28;20013;-32
2024/03/30 04:07:07;;;;;;;25.27;6.03;;;5.90;99.90;;;;;;5043265;28;20037;-32
2024/03/30 04:09:33;;;;;;;30.08;5.35;;;5.90;99.90;;;;;;5050990;28;20044;-36
2024/03/30 04:11:58;;;;;;;22.55;5.93;;;5.80;99.90;;;;;;5040322;28;20112;-40
2024/03/30 04:14:24;;;;;;;29.45;7.45;;;5.70;99.90;;;;;;5044318;28;20493;-37
2024/03/30 04:16:50;;;;;;;38.70;5.70;;;5.80;99.90;;;;;;5044940;28;20057;-40
2024/03/30 04:19:17;;;;;;;30.60;6.40;;;5.90;99.90;;;;;;5043954;28;20032;-35
2024/03/30 04:21:50;;;;;;;32.90;7.68;;;5.80;99.90;;;;;;5041281;28;20063;-38
2024/03/30 04:24:16;;;;;;;48.20;16.02;;;5.90;99.90;;;;;;5042541;28;20482;-39
2024/03/30 04:26:41;;;;;;;35.00;18.08;;;5.90;99.90;;;;;;5045115;28;20113;-42
2024/03/30 04:29:07;;;;;;;33.83;12.07;;;6.00;99.90;;;;;;5040150;28;20060;-42
2024/03/30 04:31:33;;;;;;;40.58;11.73;;;6.00;99.90;;;;;;5032850;28;20499;-40
2024/03/30 04:33:58;;;;;;;37.75;13.25;;;6.00;99.90;;;;;;5020101;28;20074;-40
2024/03/30 04:36:24;;;;;;;28.67;6.45;;;6.00;99.90;;;;;;5020586;28;20088;-42
2024/03/30 04:38:50;;;;;;;26.50;6.38;;;6.10;99.90;;;;;;5022440;28;20079;-42
2024/03/30 04:41:15;;;;;;;34.97;6.57;;;6.00;99.90;;;;;;5021247;28;20116;-35
2024/03/30 04:43:41;;;;;;;20.98;4.97;;;6.00;99.90;;;;;;5022963;28;20033;-41
2024/03/30 04:46:07;;;;;;;35.08;5.53;;;5.90;99.90;;;;;;5022975;28;20030;-41
2024/03/30 04:48:32;;;;;;;30.33;6.32;;;6.00;99.90;;;;;;5022977;28;20033;-42
2024/03/30 04:51:04;;;;;;;37.30;7.15;;;6.00;99.90;;;;;;5024202;28;20025;-37
2024/03/30 04:53:32;;;;;;;28.02;7.15;;;6.00;99.90;;;;;;5022264;28;20025;-38
2024/03/30 04:56:00;;;;;;;22.75;5.85;;;5.90;99.90;;;;;;5024290;28;20390;-39
2024/03/30 04:58:27;;;;;;;21.70;5.13;;;5.80;99.90;;;;;;5021672;28;20113;-40
2024/03/30 05:00:59;;;;;;;32.30;7.10;;;5.80;99.90;;;;;;5043961;28;20021;-40
2024/03/30 05:03:24;;;;;;;23.88;6.03;;;5.80;99.90;;;;;;5043713;28;20655;-42
2024/03/30 05:05:50;;;;;;;18.40;4.78;;;5.80;99.90;;;;;;5039174;28;20032;-41
2024/03/30 05:08:15;;;;;;;28.23;6.25;;;5.70;99.90;;;;;;5042296;28;20029;-37
2024/03/30 05:10:42;;;;;;;30.40;7.03;;;5.70;99.90;;;;;;5059651;28;20167;-36
2024/03/30 05:13:08;;;;;;;28.92;6.57;;;5.60;99.90;;;;;;5042729;28;20033;-43
2024/03/30 05:15:36;;;;;;;34.83;5.47;;;5.60;99.90;;;;;;5043240;28;20035;-42
2024/03/30 05:18:03;;;;;;;28.40;7.00;;;5.70;99.90;;;;;;5039501;28;20033;-35
2024/03/30 05:23:13;;;;;;;28.33;5.93;;;6.20;99.90;;;;;;5043590;28;20059;-32
2024/03/30 05:25:40;;;;;;;25.17;5.95;;;6.30;99.90;;;;;;5045924;28;20075;-36
2024/03/30 05:28:06;;;;;;;40.55;7.32;;;6.20;99.90;;;;;;5038657;28;20026;-42
2024/03/30 05:30:32;;;;;;;32.58;7.15;;;6.30;99.90;;;;;;5043787;28;20098;-42
2024/03/30 05:32:57;;;;;;;38.30;8.20;;;6.40;99.90;;;;;;5027842;28;20072;-41
2024/03/30 05:35:23;;;;;;;39.20;8.27;;;6.40;99.90;;;;;;5024471;28;20462;-43
2024/03/30 05:37:48;;;;;;;33.30;7.50;;;6.50;99.90;;;;;;5025286;28;20037;-36
2024/03/30 05:40:14;;;;;;;22.83;5.65;;;6.70;99.90;;;;;;5021816;28;20403;-37
2024/03/30 05:42:40;;;;;;;39.30;5.38;;;7.00;99.90;;;;;;5028214;28;20033;-40
2024/03/30 05:45:06;;;;;;;25.38;4.18;;;7.60;99.90;;;;;;5026931;28;20052;-40
2024/03/30 05:47:31;;;;;;;15.35;3.53;;;7.90;99.90;;;;;;5025808;28;20061;-42
2024/03/30 05:49:57;;;;;;;30.40;3.80;;;8.70;99.90;;;;;;5044024;28;20034;-41
2024/03/30 05:52:22;;;;;;;33.95;5.45;;;9.00;99.90;;;;;;5037323;28;20363;-43
2024/03/30 05:54:48;;;;;;;30.17;4.10;;;9.20;99.90;;;;;;5027856;28;20060;-41
2024/03/30 05:57:14;;;;;;;21.45;4.35;;;9.60;99.70;;;;;;5027948;28;20040;-42
2024/03/30 05:59:39;;;;;;;26.08;3.97;;;9.70;99.80;;;;;;5027015;28;20030;-43
2024/03/30 06:02:05;;;;;;;32.55;4.82;;;9.70;99.90;;;;;;5038431;28;20053;-41
2024/03/30 06:04:31;;;;;;;29.02;4.00;;;9.70;99.90;;;;;;5060802;28;20059;-41
2024/03/30 06:06:57;;;;;;;22.23;2.90;;;9.80;99.90;;;;;;5047378;28;20037;-42
2024/03/30 06:09:23;;;;;;;23.88;3.47;;;10.10;97.50;;;;;;5046683;28;20034;-42
2024/03/30 06:11:49;;;;;;;14.50;2.88;;;10.20;95.80;;;;;;5062345;28;20037;-41
2024/03/30 06:14:15;;;;;;;23.13;3.28;;;10.30;93.00;;;;;;5047344;28;20033;-42
2024/03/30 06:16:42;;;;;;;21.42;3.33;;;10.60;92.50;;;;;;5047700;28;20051;-41
2024/03/30 06:19:08;;;;;;;20.23;3.88;;;10.60;92.30;;;;;;5047336;28;20032;-43
2024/03/30 06:21:34;;;;;;;23.50;3.78;;;10.80;88.90;;;;;;5045835;28;20040;-43
2024/03/30 06:24:00;;;;;;;20.13;3.83;;;10.80;89.40;;;;;;5046010;28;20030;-40
2024/03/30 06:26:26;;;;;;;27.40;4.00;;;10.90;88.90;;;;;;5042766;28;20033;-40
2024/03/30 06:28:51;;;;;;;21.83;3.17;;;10.90;89.50;;;;;;5046364;28;20024;-37
2024/03/30 06:31:17;;;;;;;39.40;4.80;;;10.90;88.40;;;;;;5042903;28;20060;-40
2024/03/30 06:33:44;;;;;;;18.65;2.70;;;10.90;87.90;;;;;;5047844;28;20048;-42
2024/03/30 06:36:09;;;;;;;31.00;4.22;;;11.00;84.80;;;;;;5045763;28;20029;-42
2024/03/30 06:38:35;;;;;;;24.75;3.42;;;11.00;86.90;;;;;;5045702;28;20020;-36
2024/03/30 06:43:46;;;;;;;29.17;4.88;;;11.20;86.90;;;;;;5046490;28;20415;-34
2024/03/30 06:46:12;;;;;;;26.42;4.05;;;11.30;85.10;;;;;;5045753;28;20994;-35
2024/03/30 06:48:38;;;;;;;24.95;4.00;;;11.40;83.00;;;;;;5046628;28;20029;-31
2024/03/30 06:51:04;;;;;;;24.27;3.95;;;11.40;82.30;;;;;;5044699;28;20112;-37
2024/03/30 06:53:30;;;;;;;17.98;3.90;;;11.60;79.90;;;;;;5046209;28;20033;-38
2024/03/30 06:55:56;;;;;;;18.67;5.00;;;11.60;82.10;;;;;;5044222;28;20033;-35
2024/03/30 06:58:22;;;;;;;23.73;3.35;;;11.80;79.50;;;;;;5046472;28;20033;-32
2024/03/30 07:00:48;;;;;;;15.20;3.10;;;12.10;74.20;;;;;;5040538;28;20037;-32
2024/03/30 07:03:14;;;;;;;20.60;3.42;;;12.30;74.30;;;;;;5023669;28;20105;-33
2024/03/30 07:05:44;;;;;;;18.98;3.30;;;12.40;72.80;;;;;;5025905;28;20049;-33
2024/03/30 07:08:10;;;;;;;26.77;3.03;;;12.60;72.30;;;;;;5025575;28;20042;-32
2024/03/30 07:10:36;;;;;;;22.23;3.40;;;12.90;71.30;;;;;;5026774;28;20029;-36
2024/03/30 07:13:02;;;;;;;9.95;2.10;;;13.20;65.10;;;;;;5026343;28;20044;-34
2024/03/30 07:15:28;;;;;;;22.00;3.97;;;13.40;63.70;;;;;;5023405;28;20031;-33
2024/03/30 07:17:54;;;;;;;23.40;4.13;;;13.20;64.50;;;;;;5023034;28;20033;-34
2024/03/30 07:20:19;;;;;;;28.77;4.18;;;13.40;63.60;;;;;;5022746;28;20033;-32
2024/03/30 07:22:45;;;;;;;25.60;3.83;;;13.30;61.50;;;;;;5036415;28;21766;-35
2024/03/30 07:25:11;;;;;;;21.88;3.15;;;13.30;62.40;;;;;;5019691;28;20072;-35
2024/03/30 07:27:37;;;;;;;20.20;3.35;;;13.40;61.30;;;;;;5027395;28;20367;-32
2024/03/30 07:30:03;;;;;;;26.55;4.28;;;13.50;60.90;;;;;;5022381;28;20029;-34
2024/03/30 07:32:29;;;;;;;27.50;3.22;;;13.70;58.50;;;;;;5034652;28;20086;-38
2024/03/30 07:34:55;;;;;;;28.73;4.50;;;13.90;59.50;;;;;;5040266;28;20037;-31
2024/03/30 07:37:20;;;;;;;23.50;3.55;;;14.00;58.80;;;;;;5039668;28;20112;-31
2024/03/30 07:39:46;;;;;;;21.55;2.85;;;14.00;59.50;;;;;;5041401;28;20095;-41
2024/03/30 07:42:11;;;;;;;16.80;3.17;;;13.90;56.80;;;;;;5036967;28;20033;-40
2024/03/30 07:44:38;;;;;;;26.15;3.47;;;13.90;56.40;;;;;;5041590;28;20033;-39
2024/03/30 07:47:05;;;;;;;14.77;2.85;;;14.10;57.90;;;;;;5042750;28;20698;-39
2024/03/30 07:49:31;;;;;;;19.65;2.92;;;14.30;56.10;;;;;;5042934;28;20040;-42
2024/03/30 07:51:57;;;;;;;23.67;3.25;;;14.50;54.70;;;;;;5042546;28;20755;-41
2024/03/30 07:54:23;;;;;;;18.05;2.58;;;14.70;55.50;;;;;;5041938;28;20032;-42
2024/03/30 07:56:59;;;;;;;21.23;3.83;;;14.90;55.20;;;;;;5044075;28;20040;-41
2024/03/30 07:59:25;;;;;;;22.17;2.88;;;15.10;52.60;;;;;;5042007;28;20414;-41
2024/03/30 08:01:51;;;;;;;20.20;2.88;;;15.20;52.30;;;;;;5039118;28;20226;-42
2024/03/30 08:04:18;;;;;;;24.67;2.65;;;15.40;51.40;;;;;;5045125;28;22014;-42
2024/03/30 08:06:46;;;;;;;25.85;3.50;;;15.50;49.70;;;;;;5041017;28;20669;-41
2024/03/30 08:09:12;;;;;;;19.50;3.10;;;15.60;51.30;;;;;;5042356;28;20058;-34
2024/03/30 08:11:41;;;;;;;23.65;3.88;;;15.70;49.90;;;;;;5044130;28;20032;-41
2024/03/30 08:14:08;;;;;;;25.77;4.25;;;15.90;47.50;;;;;;5040179;28;20119;-40
2024/03/30 08:16:34;;;;;;;17.15;3.53;;;16.00;48.10;;;;;;5038679;28;20745;-39
2024/03/30 08:19:02;;;;;;;15.60;3.08;;;16.20;47.60;;;;;;5042787;28;20029;-35
2024/03/30 08:21:28;;;;;;;14.82;2.75;;;16.30;46.50;;;;;;5042102;28;20028;-42
2024/03/30 08:23:53;;;;;;;17.25;2.85;;;16.50;48.10;;;;;;5042280;28;20090;-42
2024/03/30 08:26:19;;;;;;;18.20;2.92;;;16.60;46.70;;;;;;5041742;28;20060;-40
2024/03/30 08:28:48;;;;;;;19.70;3.15;;;16.70;49.10;;;;;;5043535;28;20028;-41
2024/03/30 08:31:16;;;;;;;15.50;2.70;;;16.80;47.90;;;;;;5044588;28;20064;-40
2024/03/30 08:33:41;;;;;;;12.23;2.60;;;17.00;48.00;;;;;;5042453;28;20021;-42
2024/03/30 08:36:07;;;;;;;22.88;3.10;;;17.20;46.60;;;;;;5039645;28;20036;-42
2024/03/30 08:38:33;;;;;;;21.45;3.88;;;17.40;47.60;;;;;;5041994;28;20026;-41
2024/03/30 08:40:59;;;;;;;21.65;3.28;;;17.40;43.80;;;;;;5044756;28;20466;-41
2024/03/30 08:43:27;;;;;;;23.63;4.22;;;17.40;45.00;;;;;;5041637;28;20025;-40
2024/03/30 08:45:54;;;;;;;25.30;3.47;;;17.50;45.90;;;;;;5040134;28;20650;-41
2024/03/30 08:48:20;;;;;;;13.60;2.70;;;17.60;45.30;;;;;;5040610;28;20449;-38
2024/03/30 08:50:46;;;;;;;16.15;2.60;;;17.70;44.10;;;;;;5041163;28;20041;-41
2024/03/30 08:53:13;;;;;;;22.90;2.88;;;17.80;43.00;;;;;;5041596;28;20036;-42
2024/03/30 08:55:39;;;;;;;20.08;3.40;;;17.90;42.90;;;;;;5041554;28;20063;-40
2024/03/30 08:58:06;;;;;;;16.45;2.75;;;18.00;42.20;;;;;;5044380;28;20029;-35
2024/03/30 09:00:35;;;;;;;18.98;3.42;;;18.10;43.30;;;;;;5055738;28;20056;-34
2024/03/30 09:03:01;;;;;;;21.65;3.40;;;18.20;44.70;;;;;;5047319;28;20025;-34
2024/03/30 09:05:27;;;;;;;22.25;3.53;;;18.40;42.80;;;;;;5046814;28;20074;-39
2024/03/30 09:07:54;;;;;;;16.83;2.85;;;18.50;40.80;;;;;;5048572;28;20029;-34
2024/03/30 09:10:21;;;;;;;19.67;3.33;;;18.60;41.50;;;;;;5047089;28;20670;-33
2024/03/30 09:12:47;;;;;;;16.63;3.70;;;18.70;41.60;;;;;;5047029;28;20025;-37
2024/03/30 09:15:13;;;;;;;17.23;2.78;;;18.70;40.80;;;;;;5048695;28;20105;-39
2024/03/30 09:17:38;;;;;;;19.58;3.00;;;18.70;41.10;;;;;;5047114;28;20119;-37
2024/03/30 09:20:04;;;;;;;17.65;2.72;;;18.70;41.40;;;;;;5045477;28;20134;-37
2024/03/30 09:22:30;;;;;;;15.68;2.40;;;18.90;42.00;;;;;;5044054;28;20417;-35
2024/03/30 09:24:57;;;;;;;18.70;3.47;;;18.90;41.20;;;;;;5055424;28;20112;-37
2024/03/30 09:27:23;;;;;;;26.23;3.30;;;18.90;41.00;;;;;;5044858;28;20098;-37
2024/03/30 09:29:51;;;;;;;19.13;3.22;;;19.00;40.40;;;;;;5039889;28;20079;-39
2024/03/30 09:32:17;;;;;;;24.27;3.55;;;18.90;41.50;;;;;;5034186;28;20036;-32
2024/03/30 09:34:46;;;;;;;23.48;3.30;;;19.00;40.40;;;;;;5062090;28;20033;-36
2024/03/30 09:37:13;;;;;;;18.10;2.42;;;19.00;40.40;;;;;;5043599;28;20092;-38
2024/03/30 09:39:39;;;;;;;23.97;3.37;;;19.20;39.50;;;;;;5045041;28;20025;-37
2024/03/30 09:42:11;;;;;;;24.08;3.03;;;19.30;41.30;;;;;;5039550;28;20029;-37
2024/03/30 09:44:37;;;;;;;22.83;2.70;;;19.30;38.80;;;;;;5046220;28;20080;-35
2024/03/30 09:47:03;;;;;;;24.75;3.20;;;19.20;40.10;;;;;;5040165;28;20515;-33
2024/03/30 09:49:32;;;;;;;17.60;2.88;;;19.30;42.00;;;;;;5046131;28;20130;-37
2024/03/30 09:52:02;;;;;;;13.95;3.15;;;19.50;41.70;;;;;;5045382;28;21769;-37
2024/03/30 09:54:29;;;;;;;18.05;2.88;;;19.40;39.30;;;;;;5041572;28;20029;-35
2024/03/30 09:56:55;;;;;;;22.23;3.23;;;19.40;37.70;;;;;;5042364;28;20069;-35
2024/03/30 09:59:21;;;;;;;23.35;3.72;;;19.40;39.30;;;;;;5042527;28;20029;-40
2024/03/30 10:01:47;;;;;;;19.25;3.15;;;19.50;37.90;;;;;;5040531;28;20031;-38
2024/03/30 10:04:12;;;;;;;21.95;3.08;;;19.50;37.80;;;;;;5044864;28;20049;-39
2024/03/30 10:06:48;;;;;;;22.35;3.17;;;19.50;37.00;;;;;;5042293;28;20032;-39
2024/03/30 10:09:14;;;;;;;26.35;4.38;;;19.60;37.90;;;;;;5043617;28;20025;-41
2024/03/30 10:11:42;;;;;;;23.05;3.22;;;19.60;37.20;;;;;;5042136;28;20367;-40
2024/03/30 10:14:34;;;;;;;30.75;3.85;;;19.60;37.80;;;;;;5042290;28;20021;-41
2024/03/30 10:17:01;;;;;;;18.10;2.67;;;19.60;35.60;;;;;;5041242;28;20049;-40
2024/03/30 10:19:29;;;;;;;16.60;2.95;;;19.60;34.20;;;;;;5057213;28;20117;-39
2024/03/30 10:21:55;;;;;;;18.08;3.15;;;19.60;37.80;;;;;;5043437;28;20789;-38
2024/03/30 10:24:22;;;;;;;26.25;3.20;;;19.70;37.40;;;;;;5043093;28;20108;-40
2024/03/30 10:26:48;;;;;;;19.45;2.67;;;19.80;38.60;;;;;;5040684;28;20074;-38
2024/03/30 10:29:14;;;;;;;18.83;3.28;;;19.90;38.50;;;;;;5044793;28;20029;-39
2024/03/30 10:31:43;;;;;;;17.50;3.53;;;20.00;37.80;;;;;;5044553;28;20546;-38
2024/03/30 10:34:08;;;;;;;24.63;4.20;;;20.00;37.40;;;;;;5044689;28;20043;-40
2024/03/30 10:36:35;;;;;;;30.85;5.20;;;20.00;35.20;;;;;;5042953;28;20393;-39
2024/03/30 10:39:01;;;;;;;25.08;3.40;;;20.10;37.30;;;;;;5040272;28;20058;-40
2024/03/30 10:41:27;;;;;;;27.02;3.15;;;20.30;35.90;;;;;;5039903;28;20420;-39
2024/03/30 10:43:53;;;;;;;21.42;3.65;;;20.50;36.20;;;;;;5046393;28;20071;-40
2024/03/30 10:46:19;;;;;;;19.90;3.13;;;20.70;35.60;;;;;;5041337;28;21245;-39
2024/03/30 10:48:44;;;;;;;22.63;3.95;;;20.80;34.30;;;;;;5042758;28;20032;-41
2024/03/30 10:51:10;;;;;;;20.48;3.38;;;20.90;35.00;;;;;;5041678;28;20108;-38
2024/03/30 10:53:36;;;;;;;17.60;3.60;;;20.90;34.40;;;;;;5039403;28;20306;-37
2024/03/30 10:56:02;;;;;;;22.70;3.70;;;21.00;34.30;;;;;;5040791;28;20036;-38
2024/03/30 10:58:29;;;;;;;19.20;3.38;;;21.30;32.90;;;;;;5043127;28;20068;-40
2024/03/30 11:00:57;;;;;;;19.53;2.83;;;21.40;32.80;;;;;;5036913;28;20087;-39
2024/03/30 11:03:24;;;;;;;18.73;2.80;;;21.40;30.50;;;;;;5042574;28;20672;-39
2024/03/30 11:05:53;;;;;;;29.83;3.17;;;21.40;29.60;;;;;;5041278;28;20033;-39
2024/03/30 11:08:19;;;;;;;19.55;2.50;;;21.30;29.90;;;;;;5042846;28;20033;-38
2024/03/30 11:10:45;;;;;;;15.25;2.63;;;21.40;29.90;;;;;;5039464;28;20368;-34
2024/03/30 11:13:10;;;;;;;22.15;3.28;;;21.50;28.10;;;;;;5043676;28;20029;-35
2024/03/30 11:15:41;;;;;;;16.25;2.80;;;21.60;29.80;;;;;;5041057;28;20071;-34
2024/03/30 11:18:15;;;;;;;21.63;3.25;;;21.50;28.50;;;;;;5040498;28;20479;-39
2024/03/30 11:21:14;;;;;;;18.60;2.88;;;21.60;31.60;;;;;;5043568;28;20033;-39
2024/03/30 11:23:56;;;;;;;24.52;3.15;;;21.70;28.00;;;;;;5040996;28;20029;-37
2024/03/30 11:26:23;;;;;;;17.95;2.70;;;21.90;29.00;;;;;;5040597;28;20768;-40
2024/03/30 11:29:16;;;;;;;27.08;4.20;;;21.90;27.70;;;;;;5038772;28;20672;-37
2024/03/30 11:31:59;;;;;;;16.58;2.67;;;21.90;28.60;;;;;;5042246;28;20040;-38
2024/03/30 11:34:56;;;;;;;19.13;2.88;;;21.80;27.80;;;;;;5041817;28;20061;-39
2024/03/30 11:37:27;;;;;;;19.55;3.00;;;21.80;26.10;;;;;;5054102;28;20033;-39
2024/03/30 11:40:28;;;;;;;21.73;3.13;;;21.90;27.40;;;;;;5041002;28;20025;-39
2024/03/30 11:43:02;;;;;;;14.55;3.50;;;21.90;26.80;;;;;;5035882;28;20544;-38
2024/03/30 11:45:31;;;;;;;24.73;3.53;;;21.90;27.70;;;;;;5040985;28;20504;-40
2024/03/30 11:48:01;;;;;;;20.05;2.83;;;21.90;25.40;;;;;;5040891;28;20052;-39
2024/03/30 11:50:31;;;;;;;21.75;2.85;;;21.90;26.70;;;;;;5040571;28;20498;-39
2024/03/30 11:52:57;;;;;;;24.80;3.45;;;22.00;27.20;;;;;;5045432;28;20036;-41
2024/03/30 11:55:33;;;;;;;16.63;2.70;;;22.10;26.30;;;;;;5042884;28;20644;-38
2024/03/30 11:58:00;;;;;;;19.13;3.28;;;22.00;27.20;;;;;;5045782;28;20444;-41
2024/03/30 12:00:28;;;;;;;14.97;2.57;;;22.00;28.90;;;;;;5045418;28;20097;-40
2024/03/30 12:03:03;;;;;;;24.50;3.60;;;22.10;27.90;;;;;;5043294;28;20093;-39
2024/03/30 12:05:29;;;;;;;23.88;2.90;;;22.30;29.10;;;;;;5040982;28;20052;-39
2024/03/30 12:07:58;;;;;;;20.42;2.90;;;22.40;26.70;;;;;;5040681;28;20068;-36
2024/03/30 12:10:26;;;;;;;26.95;3.50;;;22.50;27.60;;;;;;5044664;28;20444;-40
2024/03/30 12:12:58;;;;;;;22.08;3.10;;;22.50;28.80;;;;;;5054133;28;20462;-41
2024/03/30 12:15:28;;;;;;;26.98;4.55;;;22.60;27.80;;;;;;5044050;28;20047;-39
2024/03/30 12:17:54;;;;;;;20.92;2.97;;;22.70;26.50;;;;;;5039193;28;20025;-41
2024/03/30 12:20:20;;;;;;;26.58;4.30;;;22.70;28.30;;;;;;5056482;28;20436;-38
2024/03/30 12:22:46;;;;;;;19.20;3.13;;;22.90;26.90;;;;;;5040421;28;20029;-40
2024/03/30 12:25:12;;;;;;;26.33;3.50;;;22.80;24.80;;;;;;5042671;28;20020;-41
2024/03/30 12:27:41;;;;;;;22.35;2.72;;;22.90;29.90;;;;;;5037420;28;20041;-41
2024/03/30 12:30:07;;;;;;;27.17;2.90;;;23.10;26.80;;;;;;5038331;28;20028;-36
2024/03/30 12:32:33;;;;;;;24.75;3.80;;;22.80;27.70;;;;;;5043241;28;20068;-33
2024/03/30 12:35:00;;;;;;;27.25;4.07;;;22.80;25.10;;;;;;5038563;28;20041;-34
2024/03/30 12:37:25;;;;;;;21.45;3.00;;;22.70;26.30;;;;;;5038604;28;20029;-32
2024/03/30 12:39:52;;;;;;;20.92;2.47;;;22.80;25.20;;;;;;5041164;28;20070;-32
2024/03/30 12:42:20;;;;;;;19.67;2.95;;;22.80;24.30;;;;;;5041020;28;20029;-35
2024/03/30 12:44:52;;;;;;;18.23;2.33;;;22.60;25.10;;;;;;5053609;28;20029;-32